createdAt,value
2019-03-05T00:00:18.763Z,17.30
2019-03-05T00:01:15.852Z,16.50
2019-03-05T00:03:16.976Z,17.30
2019-03-05T00:04:19.294Z,20.60
2019-03-05T00:05:15.813Z,19.30
2019-03-05T00:07:17.005Z,13.60
2019-03-05T00:09:16.915Z,19.70
2019-03-05T00:11:16.871Z,16.90
2019-03-05T00:12:19.389Z,19.50
2019-03-05T00:13:15.722Z,18.70
2019-03-05T00:14:18.623Z,15.10
2019-03-05T00:15:15.732Z,20.10
2019-03-05T00:16:36.678Z,18.30
2019-03-05T00:17:15.662Z,16.50
2019-03-05T00:19:15.645Z,17.80
2019-03-05T00:20:19.590Z,14.00
2019-03-05T00:21:15.621Z,13.30
2019-03-05T00:23:15.601Z,28.50
2019-03-05T00:25:15.627Z,13.60
2019-03-05T00:27:15.556Z,18.40
2019-03-05T00:29:15.558Z,14.60
2019-03-05T00:30:19.742Z,16.30
2019-03-05T00:31:15.548Z,20.40
2019-03-05T00:33:15.488Z,18.70
2019-03-05T00:34:17.613Z,16.10
2019-03-05T00:35:15.489Z,18.90
2019-03-05T00:37:16.597Z,18.30
2019-03-05T00:38:15.470Z,16.50
2019-03-05T00:39:15.467Z,15.50
2019-03-05T00:40:15.519Z,20.30
2019-03-05T00:41:15.453Z,14.90
2019-03-05T00:42:15.505Z,19.60
2019-03-05T00:43:15.382Z,17.00
2019-03-05T00:44:15.408Z,18.40
2019-03-05T00:45:15.373Z,12.30
2019-03-05T00:46:15.456Z,12.40
2019-03-05T00:47:15.336Z,18.70
2019-03-05T00:48:15.438Z,17.40
2019-03-05T00:49:15.307Z,20.20
2019-03-05T00:50:15.354Z,17.50
2019-03-05T00:51:24.502Z,15.60
2019-03-05T00:52:16.274Z,15.80
2019-03-05T00:53:15.374Z,17.00
2019-03-05T00:54:15.269Z,15.70
2019-03-05T00:55:15.282Z,19.00
2019-03-05T00:56:15.266Z,18.00
2019-03-05T00:57:15.302Z,17.10
2019-03-05T00:58:15.203Z,19.10
2019-03-05T00:59:15.311Z,15.00
2019-03-05T01:00:15.196Z,18.60
2019-03-05T01:01:15.256Z,18.70
2019-03-05T01:02:15.167Z,18.10
2019-03-05T01:03:15.234Z,21.10
2019-03-05T01:04:15.139Z,17.60
2019-03-05T01:05:15.248Z,18.50
2019-03-05T01:06:15.162Z,22.60
2019-03-05T01:07:15.174Z,14.90
2019-03-05T01:08:15.112Z,16.20
2019-03-05T01:09:15.179Z,23.60
2019-03-05T01:10:15.074Z,18.10
2019-03-05T01:11:15.120Z,22.10
2019-03-05T01:12:15.056Z,16.10
2019-03-05T01:13:15.143Z,19.60
2019-03-05T01:14:15.028Z,15.60
2019-03-05T01:15:15.119Z,17.80
2019-03-05T01:16:15.015Z,14.60
2019-03-05T01:17:15.022Z,20.10
2019-03-05T01:18:15.013Z,11.80
2019-03-05T01:19:15.041Z,13.80
2019-03-05T01:20:14.968Z,15.00
2019-03-05T01:21:15.054Z,13.90
2019-03-05T01:22:14.987Z,14.40
2019-03-05T01:23:14.962Z,18.80
2019-03-05T01:24:14.917Z,19.00
2019-03-05T01:25:14.977Z,16.10
2019-03-05T01:26:14.912Z,18.20
2019-03-05T01:27:15.025Z,18.90
2019-03-05T01:28:14.900Z,20.70
2019-03-05T01:29:14.907Z,17.50
2019-03-05T01:30:14.852Z,14.90
2019-03-05T01:31:14.921Z,18.20
2019-03-05T01:32:14.859Z,16.20
2019-03-05T01:33:14.935Z,15.90
2019-03-05T01:34:14.822Z,20.10
2019-03-05T01:35:14.845Z,13.40
2019-03-05T01:36:14.821Z,17.40
2019-03-05T01:37:14.888Z,21.10
2019-03-05T01:38:14.769Z,17.40
2019-03-05T01:39:14.904Z,18.10
2019-03-05T01:40:14.742Z,18.00
2019-03-05T01:41:14.741Z,19.90
2019-03-05T01:42:14.759Z,17.90
2019-03-05T01:43:14.797Z,16.40
2019-03-05T01:44:14.728Z,22.40
2019-03-05T01:45:14.806Z,19.40
2019-03-05T01:46:14.715Z,18.80
2019-03-05T01:47:14.728Z,24.00
2019-03-05T01:48:14.688Z,20.20
2019-03-05T01:49:14.840Z,20.30
2019-03-05T01:50:14.641Z,19.30
2019-03-05T01:51:14.650Z,18.80
2019-03-05T01:52:14.619Z,18.40
2019-03-05T01:53:14.688Z,21.20
2019-03-05T01:54:14.618Z,19.20
2019-03-05T01:55:14.674Z,19.80
2019-03-05T01:56:14.566Z,15.70
2019-03-05T01:57:14.582Z,18.70
2019-03-05T01:58:14.578Z,24.40
2019-03-05T01:59:14.638Z,16.40
2019-03-05T02:00:14.527Z,16.80
2019-03-05T02:01:14.611Z,17.90
2019-03-05T02:02:14.503Z,15.80
2019-03-05T02:03:14.527Z,19.20
2019-03-05T02:04:14.524Z,17.20
2019-03-05T02:05:14.481Z,17.50
2019-03-05T02:06:14.458Z,15.00
2019-03-05T02:07:14.557Z,13.70
2019-03-05T02:08:14.450Z,17.50
2019-03-05T02:09:14.497Z,21.30
2019-03-05T02:10:14.415Z,18.70
2019-03-05T02:11:14.486Z,20.90
2019-03-05T02:12:14.411Z,15.00
2019-03-05T02:13:14.489Z,17.30
2019-03-05T02:14:14.405Z,15.50
2019-03-05T02:15:14.428Z,15.50
2019-03-05T02:16:14.350Z,15.40
2019-03-05T02:17:14.418Z,22.70
2019-03-05T02:18:14.327Z,16.40
2019-03-05T02:19:14.463Z,18.10
2019-03-05T02:20:14.318Z,19.30
2019-03-05T02:21:14.343Z,18.70
2019-03-05T02:22:14.280Z,17.10
2019-03-05T02:23:14.359Z,19.90
2019-03-05T02:24:14.281Z,15.10
2019-03-05T02:25:14.403Z,18.60
2019-03-05T02:26:14.259Z,12.60
2019-03-05T02:27:14.287Z,16.90
2019-03-05T02:28:14.216Z,17.00
2019-03-05T02:29:14.296Z,16.20
2019-03-05T02:30:14.223Z,18.00
2019-03-05T02:31:14.315Z,19.80
2019-03-05T02:32:14.181Z,14.50
2019-03-05T02:33:14.218Z,15.60
2019-03-05T02:34:14.152Z,18.40
2019-03-05T02:35:14.265Z,12.50
2019-03-05T02:36:14.133Z,16.40
2019-03-05T02:37:14.149Z,12.60
2019-03-05T02:38:14.111Z,16.90
2019-03-05T02:39:14.174Z,18.00
2019-03-05T02:40:14.114Z,13.00
2019-03-05T02:41:14.186Z,14.70
2019-03-05T02:42:14.068Z,17.40
2019-03-05T02:43:14.089Z,20.00
2019-03-05T02:44:14.042Z,20.60
2019-03-05T02:45:14.134Z,16.40
2019-03-05T02:46:14.041Z,13.80
2019-03-05T02:47:14.114Z,14.10
2019-03-05T02:48:13.999Z,16.80
2019-03-05T02:49:14.026Z,14.70
2019-03-05T02:50:13.980Z,13.30
2019-03-05T02:51:14.065Z,11.40
2019-03-05T02:52:13.972Z,10.20
2019-03-05T02:53:14.060Z,9.70
2019-03-05T02:54:13.936Z,5.00
2019-03-05T02:55:13.968Z,5.10
2019-03-05T02:56:13.952Z,5.80
2019-03-05T02:57:13.989Z,5.60
2019-03-05T02:58:13.902Z,5.50
2019-03-05T02:59:14.006Z,4.10
2019-03-05T03:00:13.872Z,2.60
2019-03-05T03:01:13.943Z,4.80
2019-03-05T03:02:13.920Z,3.20
2019-03-05T03:03:13.931Z,3.10
2019-03-05T03:04:13.826Z,3.30
2019-03-05T03:05:13.962Z,6.50
2019-03-05T03:06:13.853Z,5.10
2019-03-05T03:07:13.849Z,4.30
2019-03-05T03:08:13.810Z,3.90
2019-03-05T03:09:13.866Z,3.30
2019-03-05T03:10:13.802Z,2.00
2019-03-05T03:11:13.878Z,2.10
2019-03-05T03:12:13.774Z,0.80
2019-03-05T03:13:13.797Z,1.20
2019-03-05T03:14:13.720Z,3.80
2019-03-05T03:15:13.798Z,2.90
2019-03-05T03:16:13.692Z,1.20
2019-03-05T03:17:13.742Z,3.90
2019-03-05T03:18:13.677Z,1.80
2019-03-05T03:19:13.748Z,2.80
2019-03-05T03:20:13.651Z,2.50
2019-03-05T03:21:13.739Z,2.00
2019-03-05T03:22:13.659Z,1.70
2019-03-05T03:23:13.665Z,4.20
2019-03-05T03:24:13.608Z,2.90
2019-03-05T03:25:13.664Z,3.90
2019-03-05T03:26:13.586Z,2.10
2019-03-05T03:27:13.735Z,2.20
2019-03-05T03:28:13.573Z,4.30
2019-03-05T03:29:13.598Z,3.40
2019-03-05T03:30:13.537Z,3.60
2019-03-05T03:31:13.604Z,5.00
2019-03-05T03:32:13.546Z,3.30
2019-03-05T03:33:13.651Z,2.70
2019-03-05T03:34:13.521Z,2.20
2019-03-05T03:35:13.533Z,3.90
2019-03-05T03:36:13.467Z,7.60
2019-03-05T03:37:13.611Z,4.90
2019-03-05T03:38:13.487Z,4.40
2019-03-05T03:39:13.575Z,6.20
2019-03-05T03:40:13.431Z,6.00
2019-03-05T03:41:13.472Z,5.20
2019-03-05T03:42:13.407Z,5.70
2019-03-05T03:43:13.513Z,5.80
2019-03-05T03:44:13.402Z,7.10
2019-03-05T03:45:13.500Z,8.90
2019-03-05T03:46:13.380Z,6.30
2019-03-05T03:47:13.409Z,8.70
2019-03-05T03:48:13.369Z,9.20
2019-03-05T03:49:13.423Z,10.50
2019-03-05T03:50:13.318Z,10.10
2019-03-05T03:51:13.357Z,9.60
2019-03-05T03:52:13.333Z,10.40
2019-03-05T03:53:13.417Z,10.50
2019-03-05T03:54:15.761Z,13.30
2019-03-05T03:55:13.363Z,10.70
2019-03-05T03:56:13.261Z,12.70
2019-03-05T03:57:13.294Z,12.60
2019-03-05T03:58:13.256Z,12.50
2019-03-05T03:59:13.286Z,12.40
2019-03-05T04:00:13.210Z,14.10
2019-03-05T04:01:13.295Z,15.30
2019-03-05T04:02:13.217Z,10.40
2019-03-05T04:03:13.246Z,14.40
2019-03-05T04:04:13.161Z,11.20
2019-03-05T04:05:13.237Z,12.60
2019-03-05T04:06:13.151Z,16.70
2019-03-05T04:07:13.244Z,14.50
2019-03-05T04:08:13.150Z,13.10
2019-03-05T04:09:13.154Z,14.00
2019-03-05T04:10:13.150Z,14.80
2019-03-05T04:11:13.168Z,15.30
2019-03-05T04:12:13.093Z,17.40
2019-03-05T04:13:13.182Z,15.70
2019-03-05T04:14:13.077Z,17.90
2019-03-05T04:15:13.089Z,13.90
2019-03-05T04:16:13.037Z,16.20
2019-03-05T04:17:13.106Z,15.30
2019-03-05T04:18:13.004Z,19.00
2019-03-05T04:19:13.050Z,17.50
2019-03-05T04:20:13.013Z,15.60
2019-03-05T04:21:13.058Z,15.60
2019-03-05T04:22:12.963Z,14.10
2019-03-05T04:23:13.080Z,11.00
2019-03-05T04:24:12.971Z,16.20
2019-03-05T04:25:12.954Z,11.10
2019-03-05T04:26:12.915Z,11.60
2019-03-05T04:27:12.971Z,13.90
2019-03-05T04:28:12.892Z,16.20
2019-03-05T04:29:13.029Z,13.10
2019-03-05T04:30:12.887Z,12.70
2019-03-05T04:31:12.892Z,16.90
2019-03-05T04:32:12.851Z,14.60
2019-03-05T04:33:12.905Z,16.20
2019-03-05T04:34:12.854Z,12.20
2019-03-05T04:35:12.922Z,17.50
2019-03-05T04:36:12.810Z,14.40
2019-03-05T04:37:12.836Z,16.00
2019-03-05T04:38:12.800Z,17.60
2019-03-05T04:39:12.875Z,14.80
2019-03-05T04:40:12.761Z,14.60
2019-03-05T04:41:12.860Z,16.20
2019-03-05T04:42:12.738Z,16.10
2019-03-05T04:43:12.780Z,15.30
2019-03-05T04:44:12.764Z,14.70
2019-03-05T04:45:12.786Z,13.90
2019-03-05T04:46:12.687Z,15.60
2019-03-05T04:47:12.801Z,17.40
2019-03-05T04:48:12.700Z,14.20
2019-03-05T04:49:12.740Z,11.50
2019-03-05T04:50:12.652Z,15.40
2019-03-05T04:51:12.727Z,14.20
2019-03-05T04:52:12.639Z,13.00
2019-03-05T04:53:12.764Z,12.40
2019-03-05T04:54:12.631Z,16.60
2019-03-05T04:55:12.692Z,18.00
2019-03-05T04:56:12.603Z,15.00
2019-03-05T04:57:12.660Z,17.50
2019-03-05T04:58:12.569Z,13.10
2019-03-05T04:59:12.573Z,13.30
2019-03-05T05:00:12.564Z,12.40
2019-03-05T05:01:12.604Z,12.80
2019-03-05T05:02:12.527Z,12.80
2019-03-05T05:03:12.604Z,15.30
2019-03-05T05:04:12.493Z,10.30
2019-03-05T05:05:12.603Z,10.10
2019-03-05T05:06:12.478Z,12.30
2019-03-05T05:07:12.541Z,12.10
2019-03-05T05:08:12.458Z,13.40
2019-03-05T05:09:12.543Z,15.00
2019-03-05T05:10:12.473Z,12.30
2019-03-05T05:11:12.459Z,13.70
2019-03-05T05:12:12.439Z,10.40
2019-03-05T05:13:12.464Z,11.50
2019-03-05T05:14:12.397Z,9.00
2019-03-05T05:15:12.543Z,8.20
2019-03-05T05:16:12.396Z,9.00
2019-03-05T05:17:12.393Z,10.70
2019-03-05T05:18:12.355Z,7.80
2019-03-05T05:19:12.490Z,9.60
2019-03-05T05:20:12.336Z,10.40
2019-03-05T05:21:12.425Z,12.00
2019-03-05T05:22:12.358Z,13.00
2019-03-05T05:23:12.335Z,10.90
2019-03-05T05:24:12.275Z,8.80
2019-03-05T05:25:12.382Z,9.60
2019-03-05T05:26:12.256Z,9.70
2019-03-05T05:27:12.368Z,11.60
2019-03-05T05:28:12.218Z,10.40
2019-03-05T05:29:12.279Z,9.30
2019-03-05T05:30:12.247Z,9.90
2019-03-05T05:31:12.289Z,9.80
2019-03-05T05:32:12.185Z,12.60
2019-03-05T05:33:12.196Z,9.10
2019-03-05T05:34:12.156Z,13.90
2019-03-05T05:35:12.214Z,11.30
2019-03-05T05:36:12.184Z,13.60
2019-03-05T05:37:12.234Z,8.60
2019-03-05T05:38:12.147Z,12.00
2019-03-05T05:39:12.136Z,12.30
2019-03-05T05:40:12.116Z,13.00
2019-03-05T05:41:12.200Z,9.70
2019-03-05T05:42:12.086Z,9.20
2019-03-05T05:43:12.169Z,10.50
2019-03-05T05:44:12.050Z,10.70
2019-03-05T05:45:12.077Z,12.70
2019-03-05T05:46:12.061Z,11.10
2019-03-05T05:47:12.022Z,14.00
2019-03-05T05:48:12.004Z,14.30
2019-03-05T05:49:12.125Z,13.00
2019-03-05T05:50:12.005Z,15.40
2019-03-05T05:51:12.044Z,12.10
2019-03-05T05:52:11.964Z,15.50
2019-03-05T05:53:12.037Z,12.10
2019-03-05T05:54:11.954Z,13.70
2019-03-05T05:55:12.045Z,13.80
2019-03-05T05:56:11.919Z,13.00
2019-03-05T05:57:11.986Z,10.10
2019-03-05T05:58:11.897Z,12.40
2019-03-05T05:59:11.969Z,10.40
2019-03-05T06:00:11.874Z,12.90
2019-03-05T06:01:11.915Z,13.80
2019-03-05T06:02:11.851Z,10.60
2019-03-05T06:03:11.890Z,13.70
2019-03-05T06:04:11.826Z,13.50
2019-03-05T06:05:11.907Z,12.00
2019-03-05T06:06:11.857Z,10.20
2019-03-05T06:07:11.830Z,14.10
2019-03-05T06:08:11.783Z,12.10
2019-03-05T06:09:11.842Z,14.70
2019-03-05T06:10:11.760Z,9.90
2019-03-05T06:11:11.856Z,11.50
2019-03-05T06:12:11.777Z,10.40
2019-03-05T06:13:11.754Z,13.70
2019-03-05T06:14:11.719Z,11.60
2019-03-05T06:15:11.779Z,9.50
2019-03-05T06:16:11.697Z,14.20
2019-03-05T06:17:11.856Z,14.00
2019-03-05T06:18:11.672Z,11.80
2019-03-05T06:19:11.700Z,13.10
2019-03-05T06:20:11.647Z,14.90
2019-03-05T06:21:11.712Z,11.60
2019-03-05T06:22:11.652Z,12.40
2019-03-05T06:23:11.732Z,15.20
2019-03-05T06:24:11.621Z,14.30
2019-03-05T06:25:11.639Z,12.70
2019-03-05T06:26:11.586Z,11.70
2019-03-05T06:27:11.684Z,11.20
2019-03-05T06:28:11.583Z,11.40
2019-03-05T06:29:11.669Z,12.00
2019-03-05T06:30:11.542Z,11.00
2019-03-05T06:31:11.582Z,10.40
2019-03-05T06:32:11.524Z,11.00
2019-03-05T06:33:11.622Z,11.00
2019-03-05T06:34:11.507Z,13.80
2019-03-05T06:35:11.609Z,11.90
2019-03-05T06:36:11.473Z,15.00
2019-03-05T06:37:11.512Z,11.90
2019-03-05T06:38:11.481Z,10.60
2019-03-05T06:39:11.560Z,12.80
2019-03-05T06:40:11.435Z,13.10
2019-03-05T06:41:11.544Z,9.70
2019-03-05T06:42:11.434Z,11.80
2019-03-05T06:43:11.492Z,13.20
2019-03-05T06:44:11.395Z,7.80
2019-03-05T06:45:11.380Z,11.10
2019-03-05T06:46:11.371Z,16.10
2019-03-05T06:47:11.364Z,12.30
2019-03-05T06:48:11.455Z,11.90
2019-03-05T06:49:11.331Z,15.40
2019-03-05T06:50:11.328Z,12.20
2019-03-05T06:51:11.317Z,11.40
2019-03-05T06:52:11.951Z,11.50
2019-03-05T06:53:11.327Z,12.90
2019-03-05T06:54:11.280Z,10.00
2019-03-05T06:55:11.269Z,11.20
2019-03-05T06:56:11.253Z,11.40
2019-03-05T06:57:11.247Z,13.00
2019-03-05T06:58:12.015Z,12.60
2019-03-05T06:59:11.283Z,14.30
2019-03-05T07:00:11.208Z,11.70
2019-03-05T07:01:11.206Z,14.60
2019-03-05T07:02:11.188Z,11.60
2019-03-05T07:03:11.323Z,10.30
2019-03-05T07:04:11.175Z,12.00
2019-03-05T07:05:11.168Z,12.70
2019-03-05T07:06:11.146Z,9.80
2019-03-05T07:07:11.135Z,14.00
2019-03-05T07:08:11.159Z,9.50
2019-03-05T07:09:11.150Z,9.90
2019-03-05T07:10:11.102Z,12.70
2019-03-05T07:11:11.131Z,11.40
2019-03-05T07:12:11.081Z,9.30
2019-03-05T07:13:11.079Z,12.50
2019-03-05T07:14:11.080Z,10.20
2019-03-05T07:15:11.050Z,13.30
2019-03-05T07:16:11.037Z,10.00
2019-03-05T07:17:11.025Z,11.70
2019-03-05T07:18:11.013Z,12.60
2019-03-05T07:19:11.046Z,9.70
2019-03-05T07:20:11.012Z,8.50
2019-03-05T07:21:10.999Z,11.80
2019-03-05T07:22:10.998Z,10.60
2019-03-05T07:23:10.957Z,10.00
2019-03-05T07:24:10.974Z,11.60
2019-03-05T07:25:10.937Z,12.20
2019-03-05T07:26:10.945Z,10.60
2019-03-05T07:27:10.933Z,10.40
2019-03-05T07:28:10.933Z,9.80
2019-03-05T07:29:10.947Z,10.50
2019-03-05T07:30:10.877Z,12.70
2019-03-05T07:31:10.896Z,12.20
2019-03-05T07:32:10.873Z,15.20
2019-03-05T07:33:10.849Z,9.30
2019-03-05T07:34:10.862Z,9.90
2019-03-05T07:35:10.831Z,12.20
2019-03-05T07:36:10.812Z,10.00
2019-03-05T07:37:10.842Z,9.70
2019-03-05T07:38:10.874Z,13.10
2019-03-05T07:39:10.850Z,11.20
2019-03-05T07:40:10.772Z,10.00
2019-03-05T07:41:10.761Z,10.40
2019-03-05T07:42:10.833Z,10.10
2019-03-05T07:43:10.748Z,11.80
2019-03-05T07:44:10.764Z,10.80
2019-03-05T07:45:10.720Z,11.80
2019-03-05T07:46:10.708Z,12.70
2019-03-05T07:47:10.703Z,11.70
2019-03-05T07:48:10.690Z,9.60
2019-03-05T07:49:10.683Z,9.40
2019-03-05T07:50:10.689Z,13.10
2019-03-05T07:51:10.653Z,13.60
2019-03-05T07:52:10.637Z,11.70
2019-03-05T07:53:10.634Z,13.50
2019-03-05T07:54:10.623Z,12.00
2019-03-05T07:55:13.884Z,9.60
2019-03-05T07:56:10.594Z,13.40
2019-03-05T07:57:10.587Z,11.90
2019-03-05T07:58:10.568Z,8.70
2019-03-05T07:59:10.674Z,12.00
2019-03-05T08:00:10.593Z,10.80
2019-03-05T08:01:21.519Z,15.80
2019-03-05T08:02:11.529Z,9.90
2019-03-05T08:03:10.585Z,8.20
2019-03-05T08:04:10.530Z,13.20
2019-03-05T08:05:10.630Z,11.40
2019-03-05T08:06:10.520Z,11.70
2019-03-05T08:08:11.619Z,14.10
2019-03-05T08:09:10.457Z,13.30
2019-03-05T08:10:10.469Z,10.90
2019-03-05T08:11:10.562Z,16.10
2019-03-05T08:12:10.438Z,13.00
2019-03-05T08:13:10.461Z,11.90
2019-03-05T08:14:10.396Z,13.80
2019-03-05T08:15:10.460Z,13.80
2019-03-05T08:16:10.435Z,11.60
2019-03-05T08:17:10.493Z,12.70
2019-03-05T08:18:10.365Z,12.50
2019-03-05T08:19:10.414Z,14.60
2019-03-05T08:20:10.353Z,15.40
2019-03-05T08:21:10.431Z,13.00
2019-03-05T08:22:10.306Z,14.20
2019-03-05T08:23:10.410Z,14.00
2019-03-05T08:24:10.311Z,15.30
2019-03-05T08:25:10.352Z,16.60
2019-03-05T08:26:10.288Z,14.00
2019-03-05T08:27:10.336Z,17.10
2019-03-05T08:28:10.243Z,13.20
2019-03-05T08:29:10.353Z,12.50
2019-03-05T08:30:14.254Z,14.70
2019-03-05T08:31:10.247Z,13.60
2019-03-05T08:32:10.199Z,12.00
2019-03-05T08:33:10.209Z,13.00
2019-03-05T08:34:10.188Z,12.90
2019-03-05T08:35:10.176Z,12.60
2019-03-05T08:36:10.197Z,9.30
2019-03-05T08:37:10.212Z,11.60
2019-03-05T08:38:10.139Z,11.90
2019-03-05T08:39:10.173Z,9.70
2019-03-05T08:40:10.113Z,10.60
2019-03-05T08:41:10.114Z,9.10
2019-03-05T08:42:10.128Z,10.40
2019-03-05T08:43:10.094Z,9.40
2019-03-05T08:44:10.078Z,9.30
2019-03-05T08:46:11.188Z,7.40
2019-03-05T08:47:10.062Z,8.90
2019-03-05T08:48:10.060Z,6.70
2019-03-05T08:49:10.020Z,7.60
2019-03-05T08:50:10.006Z,7.20
2019-03-05T08:51:10.005Z,8.10
2019-03-05T08:52:10.006Z,7.40
2019-03-05T08:53:10.015Z,6.60
2019-03-05T08:54:09.965Z,7.70
2019-03-05T08:55:09.958Z,8.40
2019-03-05T08:56:09.948Z,7.30
2019-03-05T08:57:10.018Z,7.10
2019-03-05T08:58:09.907Z,7.00
2019-03-05T08:59:09.930Z,7.60
2019-03-05T09:00:09.891Z,6.70
2019-03-05T09:01:09.898Z,7.50
2019-03-05T09:02:09.905Z,8.30
2019-03-05T09:03:09.896Z,9.30
2019-03-05T09:04:09.874Z,8.00
2019-03-05T09:05:09.841Z,9.50
2019-03-05T09:06:09.827Z,9.20
2019-03-05T09:07:09.851Z,8.00
2019-03-05T09:08:09.852Z,8.50
2019-03-05T09:09:09.795Z,8.90
2019-03-05T09:10:09.781Z,8.50
2019-03-05T09:11:09.814Z,8.30
2019-03-05T09:12:09.826Z,10.00
2019-03-05T09:13:09.791Z,11.50
2019-03-05T09:14:09.744Z,9.40
2019-03-05T09:16:10.849Z,10.50
2019-03-05T09:17:09.713Z,11.00
2019-03-05T09:18:09.731Z,9.80
2019-03-05T09:19:09.690Z,10.30
2019-03-05T09:20:09.668Z,11.00
2019-03-05T09:21:09.668Z,11.90
2019-03-05T09:22:09.652Z,11.10
2019-03-05T09:23:09.648Z,11.90
2019-03-05T09:24:09.656Z,11.40
2019-03-05T09:25:09.617Z,12.40
2019-03-05T09:26:09.605Z,11.70
2019-03-05T09:27:09.594Z,12.50
2019-03-05T09:28:09.580Z,12.70
2019-03-05T09:29:09.605Z,11.10
2019-03-05T09:30:09.556Z,12.40
2019-03-05T09:31:09.574Z,11.50
2019-03-05T09:32:09.539Z,12.90
2019-03-05T09:33:09.540Z,12.80
2019-03-05T09:34:09.537Z,14.60
2019-03-05T09:35:09.534Z,13.00
2019-03-05T09:36:09.492Z,13.00
2019-03-05T09:37:09.613Z,15.60
2019-03-05T09:38:09.477Z,15.20
2019-03-05T09:39:09.539Z,14.70
2019-03-05T09:40:09.454Z,16.10
2019-03-05T09:41:09.526Z,14.90
2019-03-05T09:42:09.439Z,13.30
2019-03-05T09:43:09.537Z,14.20
2019-03-05T09:44:09.440Z,15.60
2019-03-05T09:45:09.463Z,15.00
2019-03-05T09:46:09.394Z,15.90
2019-03-05T09:47:09.493Z,14.40
2019-03-05T09:48:09.357Z,13.90
2019-03-05T09:49:09.515Z,14.60
2019-03-05T09:50:09.350Z,12.50
2019-03-05T09:51:09.396Z,14.80
2019-03-05T09:52:09.324Z,13.10
2019-03-05T09:53:09.405Z,15.80
2019-03-05T09:54:09.322Z,14.20
2019-03-05T09:55:09.319Z,14.20
2019-03-05T09:56:09.278Z,14.70
2019-03-05T09:57:09.332Z,12.40
2019-03-05T09:58:09.249Z,12.70
2019-03-05T09:59:09.384Z,11.60
2019-03-05T10:00:09.235Z,12.20
2019-03-05T10:01:09.258Z,13.00
2019-03-05T10:02:09.225Z,14.50
2019-03-05T10:03:09.264Z,13.70
2019-03-05T10:04:09.239Z,17.20
2019-03-05T10:05:09.306Z,13.00
2019-03-05T10:06:09.184Z,15.60
2019-03-05T10:07:18.614Z,13.60
2019-03-05T10:08:10.140Z,13.50
2019-03-05T10:09:09.146Z,12.00
2019-03-05T10:10:09.157Z,11.70
2019-03-05T10:11:09.146Z,12.00
2019-03-05T10:12:09.116Z,11.20
2019-03-05T10:13:09.095Z,11.40
2019-03-05T10:14:09.089Z,11.80
2019-03-05T10:15:09.107Z,10.50
2019-03-05T10:16:09.049Z,10.40
2019-03-05T10:17:09.063Z,9.90
2019-03-05T10:18:12.917Z,8.20
2019-03-05T10:19:09.033Z,12.20
2019-03-05T10:20:09.039Z,10.80
2019-03-05T10:21:11.729Z,11.20
2019-03-05T10:22:09.021Z,11.70
2019-03-05T10:23:08.985Z,9.60
2019-03-05T10:24:10.842Z,11.30
2019-03-05T10:25:08.995Z,10.90
2019-03-05T10:26:10.583Z,9.20
2019-03-05T10:28:10.066Z,7.80
2019-03-05T10:29:08.924Z,10.80
2019-03-05T10:30:08.902Z,9.80
2019-03-05T10:31:08.952Z,7.20
2019-03-05T10:32:08.875Z,6.60
2019-03-05T10:33:08.878Z,7.20
2019-03-05T10:34:08.862Z,6.80
2019-03-05T10:35:08.849Z,8.50
2019-03-05T10:36:08.875Z,6.80
2019-03-05T10:37:14.506Z,7.00
2019-03-05T10:38:09.810Z,9.50
2019-03-05T10:39:08.803Z,9.10
2019-03-05T10:40:08.790Z,9.60
2019-03-05T10:41:08.823Z,7.40
2019-03-05T10:42:08.776Z,6.40
2019-03-05T10:43:09.171Z,6.70
2019-03-05T10:44:08.753Z,4.80
2019-03-05T10:45:08.743Z,5.50
2019-03-05T10:46:08.755Z,5.80
2019-03-05T10:47:08.728Z,5.00
2019-03-05T10:48:08.699Z,6.80
2019-03-05T10:49:08.701Z,5.80
2019-03-05T10:50:15.287Z,5.40
2019-03-05T10:51:09.691Z,6.50
2019-03-05T10:52:08.650Z,5.40
2019-03-05T10:53:08.656Z,7.60
2019-03-05T10:54:08.639Z,5.40
2019-03-05T10:55:08.626Z,6.60
2019-03-05T10:56:08.646Z,5.90
2019-03-05T10:57:08.627Z,4.50
2019-03-05T10:58:08.615Z,4.60
2019-03-05T10:59:08.578Z,6.20
2019-03-05T11:00:08.570Z,4.60
2019-03-05T11:01:08.553Z,6.40
2019-03-05T11:02:08.540Z,5.90
2019-03-05T11:03:08.581Z,10.10
2019-03-05T11:04:08.553Z,11.00
2019-03-05T11:05:08.511Z,8.20
2019-03-05T11:06:08.508Z,6.90
2019-03-05T11:07:08.495Z,7.70
2019-03-05T11:08:08.502Z,6.70
2019-03-05T11:09:08.478Z,11.10
2019-03-05T11:10:08.462Z,6.90
2019-03-05T11:11:13.581Z,5.60
2019-03-05T11:12:09.462Z,4.40
2019-03-05T11:13:08.462Z,6.70
2019-03-05T11:14:08.414Z,4.90
2019-03-05T11:15:08.403Z,5.60
2019-03-05T11:16:08.385Z,6.00
2019-03-05T11:17:08.382Z,5.10
2019-03-05T11:18:08.380Z,7.20
2019-03-05T11:19:08.354Z,7.60
2019-03-05T11:20:08.349Z,5.80
2019-03-05T11:21:08.333Z,8.40
2019-03-05T11:22:08.558Z,7.50
2019-03-05T11:23:08.330Z,5.90
2019-03-05T11:24:08.303Z,5.50
2019-03-05T11:25:08.300Z,5.90
2019-03-05T11:26:08.296Z,6.60
2019-03-05T11:27:08.297Z,5.90
2019-03-05T11:28:08.246Z,7.40
2019-03-05T11:29:08.253Z,7.10
2019-03-05T11:30:08.227Z,6.80
2019-03-05T11:31:08.273Z,6.60
2019-03-05T11:32:08.206Z,6.30
2019-03-05T11:33:08.245Z,6.80
2019-03-05T11:34:08.220Z,6.00
2019-03-05T11:35:08.176Z,6.80
2019-03-05T11:36:08.165Z,8.00
2019-03-05T11:37:08.158Z,7.20
2019-03-05T11:38:08.171Z,8.20
2019-03-05T11:39:08.154Z,5.20
2019-03-05T11:40:08.116Z,6.60
2019-03-05T11:41:08.134Z,7.70
2019-03-05T11:42:08.097Z,6.10
2019-03-05T11:43:08.113Z,7.60
2019-03-05T11:44:08.111Z,6.10
2019-03-05T11:45:11.528Z,8.30
2019-03-05T11:46:08.056Z,7.60
2019-03-05T11:47:29.046Z,7.70
2019-03-05T11:48:08.046Z,6.00
2019-03-05T11:49:08.044Z,9.20
2019-03-05T11:50:08.001Z,6.40
2019-03-05T11:51:08.003Z,6.80
2019-03-05T11:52:07.979Z,6.20
2019-03-05T11:53:08.084Z,8.00
2019-03-05T11:54:07.993Z,6.60
2019-03-05T11:55:08.015Z,7.00
2019-03-05T11:56:07.933Z,8.80
2019-03-05T11:57:08.010Z,8.70
2019-03-05T11:58:07.958Z,7.30
2019-03-05T11:59:08.072Z,7.00
2019-03-05T12:00:07.956Z,7.20
2019-03-05T12:01:07.933Z,7.30
2019-03-05T12:02:09.769Z,8.40
2019-03-05T12:03:07.949Z,5.90
2019-03-05T12:04:07.871Z,5.80
2019-03-05T12:05:07.963Z,7.40
2019-03-05T12:06:07.831Z,7.20
2019-03-05T12:07:07.874Z,9.80
2019-03-05T12:08:07.800Z,10.80
2019-03-05T12:09:07.932Z,12.00
2019-03-05T12:10:07.784Z,10.60
2019-03-05T12:11:07.806Z,8.50
2019-03-05T12:12:07.756Z,5.40
2019-03-05T12:14:09.072Z,8.90
2019-03-05T12:15:07.827Z,14.80
2019-03-05T12:16:07.747Z,10.70
2019-03-05T12:17:07.739Z,9.40
2019-03-05T12:18:07.755Z,6.90
2019-03-05T12:19:07.784Z,6.80
2019-03-05T12:20:07.689Z,14.30
2019-03-05T12:21:07.769Z,11.40
2019-03-05T12:22:07.655Z,8.90
2019-03-05T12:23:10.471Z,6.60
2019-03-05T12:24:07.663Z,8.70
2019-03-05T12:25:07.697Z,7.00
2019-03-05T12:26:07.645Z,10.20
2019-03-05T12:27:07.704Z,6.70
2019-03-05T12:28:10.571Z,6.30
2019-03-05T12:29:07.618Z,6.30
2019-03-05T12:30:07.600Z,6.50
2019-03-05T12:31:07.634Z,5.20
2019-03-05T12:32:07.538Z,7.10
2019-03-05T12:33:07.646Z,7.70
2019-03-05T12:34:07.512Z,9.40
2019-03-05T12:35:07.587Z,7.40
2019-03-05T12:36:07.493Z,9.10
2019-03-05T12:37:07.566Z,8.40
2019-03-05T12:38:07.471Z,6.60
2019-03-05T12:39:07.592Z,9.40
2019-03-05T12:40:07.502Z,11.60
2019-03-05T12:41:07.494Z,15.20
2019-03-05T12:42:07.435Z,12.10
2019-03-05T12:43:07.527Z,10.30
2019-03-05T12:44:07.457Z,8.80
2019-03-05T12:45:07.461Z,7.70
2019-03-05T12:46:07.413Z,9.10
2019-03-05T12:47:07.436Z,8.10
2019-03-05T12:48:07.374Z,11.00
2019-03-05T12:49:07.454Z,8.80
2019-03-05T12:50:07.384Z,7.30
2019-03-05T12:51:07.360Z,6.10
2019-03-05T12:52:07.319Z,8.20
2019-03-05T12:53:07.387Z,6.10
2019-03-05T12:54:07.310Z,8.30
2019-03-05T12:55:07.426Z,6.80
2019-03-05T12:56:07.284Z,6.10
2019-03-05T12:57:07.309Z,8.40
2019-03-05T12:58:07.251Z,14.40
2019-03-05T12:59:07.318Z,18.20
2019-03-05T13:00:07.260Z,33.00
2019-03-05T13:01:07.341Z,40.10
2019-03-05T13:02:07.249Z,67.90
2019-03-05T13:03:07.238Z,35.70
2019-03-05T13:04:07.183Z,16.90
2019-03-05T13:05:07.269Z,12.40
2019-03-05T13:06:07.186Z,9.00
2019-03-05T13:07:07.267Z,11.60
2019-03-05T13:08:07.150Z,8.90
2019-03-05T13:09:07.182Z,9.80
2019-03-05T13:10:07.124Z,9.90
2019-03-05T13:11:09.360Z,6.80
2019-03-05T13:12:08.104Z,8.40
2019-03-05T13:13:10.372Z,14.30
2019-03-05T13:14:11.202Z,18.90
2019-03-05T13:15:07.124Z,28.50
2019-03-05T13:16:07.128Z,11.80
2019-03-05T13:17:07.132Z,9.60